Time;durP1;ratioP1;P1;durP2;ratioP2;P2;SDS_P1;SDS_P2;PMS_P1;PMS_P2;Temp;Humidity;BMP_temperature;BMP_pressure;BME280_temperature;BME280_humidity;BME280_pressure;Samples;Min_cycle;Max_cycle;Signal;HPM_P1;HPM_P2
2022/09/02 00:00:59;;;;;;;2.42;2.33;;;12.10;99.90;;;;;;5034147;28;20176;-76
2022/09/02 00:03:34;;;;;;;2.25;2.15;;;12.10;99.90;;;;;;5034967;28;20183;-76
2022/09/02 00:06:01;;;;;;;2.75;2.55;;;12.00;99.90;;;;;;5029897;28;20183;-77
2022/09/02 00:08:27;;;;;;;3.55;2.47;;;12.00;99.90;;;;;;5032138;28;20614;-77
2022/09/02 00:10:53;;;;;;;2.95;2.50;;;12.00;99.90;;;;;;5035284;28;20668;-77
2022/09/02 00:13:20;;;;;;;2.53;2.40;;;12.10;99.90;;;;;;5037888;28;20247;-77
2022/09/02 00:15:47;;;;;;;3.17;2.00;;;12.10;99.90;;;;;;5031199;28;20181;-76
2022/09/02 00:18:13;;;;;;;2.38;2.28;;;12.10;99.90;;;;;;5035474;28;20231;-76
2022/09/02 00:20:41;;;;;;;2.20;2.00;;;12.10;99.90;;;;;;5033463;28;20223;-77
2022/09/02 00:23:07;;;;;;;2.13;2.00;;;12.10;99.90;;;;;;5026703;28;20231;-77
2022/09/02 00:25:35;;;;;;;5.47;2.50;;;12.10;99.90;;;;;;5030523;28;20249;-77
2022/09/02 00:28:00;;;;;;;3.38;2.30;;;12.00;99.90;;;;;;5033915;28;20227;-75
2022/09/02 00:30:27;;;;;;;2.30;2.08;;;11.90;99.90;;;;;;5042586;28;20251;-75
2022/09/02 00:32:53;;;;;;;2.40;2.20;;;11.90;99.90;;;;;;5037993;28;20188;-75
2022/09/02 00:35:19;;;;;;;2.50;2.30;;;11.90;99.90;;;;;;5032859;28;20172;-75
2022/09/02 00:37:44;;;;;;;2.22;2.13;;;11.90;99.90;;;;;;5031462;28;20197;-75
2022/09/02 00:40:11;;;;;;;2.50;2.30;;;11.90;99.90;;;;;;5036408;28;20577;-76
2022/09/02 00:42:37;;;;;;;2.53;2.38;;;11.90;99.90;;;;;;5040143;28;20183;-75
2022/09/02 00:45:03;;;;;;;2.30;2.20;;;11.90;99.90;;;;;;5035905;28;20181;-75
2022/09/02 00:47:30;;;;;;;2.33;2.13;;;11.90;99.90;;;;;;5037903;28;20188;-75
2022/09/02 00:49:57;;;;;;;2.10;2.00;;;11.80;99.90;;;;;;5040561;28;20569;-75
2022/09/02 00:52:23;;;;;;;2.55;2.35;;;11.80;99.90;;;;;;5038947;28;20628;-75
2022/09/02 00:55:01;;;;;;;2.70;2.40;;;11.80;99.90;;;;;;5031359;28;20181;-75
2022/09/02 00:57:32;;;;;;;2.72;2.03;;;11.70;99.90;;;;;;5032511;28;20203;-75
2022/09/02 01:00:16;;;;;;;2.15;2.05;;;11.70;99.90;;;;;;5027426;28;20203;-76
2022/09/02 01:02:45;;;;;;;2.30;2.00;;;11.70;99.90;;;;;;5031460;28;20524;-75
2022/09/02 01:05:13;;;;;;;2.42;2.22;;;11.80;99.90;;;;;;5035970;28;20176;-76
2022/09/02 01:07:39;;;;;;;2.45;2.10;;;11.80;99.90;;;;;;5027097;28;20188;-76
2022/09/02 01:10:08;;;;;;;2.65;2.45;;;11.70;99.90;;;;;;5028176;28;20204;-76
2022/09/02 01:12:35;;;;;;;2.30;2.10;;;11.60;99.90;;;;;;5031470;28;20251;-76
2022/09/02 01:15:02;;;;;;;2.47;2.35;;;11.60;99.90;;;;;;5038728;28;20200;-76
2022/09/02 01:17:28;;;;;;;2.80;2.60;;;11.60;99.90;;;;;;5030523;28;20217;-76
2022/09/02 01:20:02;;;;;;;3.05;2.10;;;11.50;99.90;;;;;;5031788;28;20220;-76
2022/09/02 01:22:31;;;;;;;2.83;2.63;;;11.50;99.90;;;;;;5032499;28;20715;-77
2022/09/02 01:25:02;;;;;;;4.72;2.53;;;11.40;99.90;;;;;;5031962;28;20264;-76
2022/09/02 01:27:28;;;;;;;2.38;2.25;;;11.50;99.90;;;;;;5032056;28;20215;-76
2022/09/02 01:29:56;;;;;;;4.07;2.60;;;11.40;99.90;;;;;;5032402;28;20227;-75
2022/09/02 01:32:23;;;;;;;2.47;2.38;;;11.40;99.90;;;;;;5033730;28;20667;-76
2022/09/02 01:34:49;;;;;;;3.85;2.60;;;11.40;99.90;;;;;;5035067;28;20181;-76
2022/09/02 01:37:15;;;;;;;2.22;2.13;;;11.40;99.90;;;;;;5040127;28;20192;-76
2022/09/02 01:39:41;;;;;;;2.10;2.00;;;11.40;99.90;;;;;;5029678;28;20200;-76
2022/09/02 01:42:07;;;;;;;2.08;1.98;;;11.40;99.90;;;;;;5034540;28;20317;-76
2022/09/02 01:44:42;;;;;;;2.30;2.20;;;11.40;99.90;;;;;;5039795;28;20191;-76
2022/09/02 01:47:16;;;;;;;2.30;2.20;;;11.30;99.90;;;;;;5030106;28;20176;-76
2022/09/02 01:49:42;;;;;;;3.60;2.53;;;11.30;99.90;;;;;;5031203;28;20713;-77
2022/09/02 01:52:08;;;;;;;2.15;2.00;;;11.20;99.90;;;;;;5037546;28;20176;-77
2022/09/02 01:54:33;;;;;;;3.92;2.38;;;11.20;99.90;;;;;;5033173;28;20678;-77
2022/09/02 01:56:59;;;;;;;2.50;2.25;;;11.20;99.90;;;;;;5031805;28;20208;-77
2022/09/02 01:59:25;;;;;;;2.58;2.25;;;11.20;99.90;;;;;;5027116;28;20201;-77
2022/09/02 02:01:51;;;;;;;2.20;2.10;;;11.20;99.90;;;;;;5031455;28;20176;-77
2022/09/02 02:04:17;;;;;;;2.08;1.88;;;11.30;99.90;;;;;;5036760;28;20251;-77
2022/09/02 02:06:46;;;;;;;2.38;1.90;;;11.40;99.90;;;;;;5032419;28;20220;-77
2022/09/02 02:09:12;;;;;;;3.70;2.38;;;11.40;99.90;;;;;;5033845;28;20204;-77
2022/09/02 02:11:38;;;;;;;2.13;2.03;;;11.30;99.90;;;;;;5026508;28;20189;-77
2022/09/02 02:14:04;;;;;;;2.15;2.05;;;11.30;99.90;;;;;;5035825;28;20261;-77
2022/09/02 02:16:30;;;;;;;2.75;2.00;;;11.30;99.90;;;;;;5029271;28;20291;-77
2022/09/02 02:18:56;;;;;;;2.80;2.00;;;11.30;99.90;;;;;;5031293;28;20631;-78
2022/09/02 02:21:22;;;;;;;2.28;2.10;;;11.20;99.90;;;;;;5029284;28;20190;-78
2022/09/02 02:23:47;;;;;;;2.17;2.08;;;11.20;99.90;;;;;;5025657;28;20169;-77
2022/09/02 02:26:13;;;;;;;1.90;1.80;;;11.20;99.90;;;;;;5027448;28;20556;-77
2022/09/02 02:28:39;;;;;;;4.13;2.22;;;11.20;99.90;;;;;;5031140;28;20284;-76
2022/09/02 02:31:05;;;;;;;2.25;2.05;;;11.20;99.90;;;;;;5027658;28;20188;-76
2022/09/02 02:33:31;;;;;;;2.40;2.30;;;11.10;99.90;;;;;;5030138;28;20239;-76
2022/09/02 02:35:57;;;;;;;3.10;2.30;;;11.10;99.90;;;;;;5030362;28;20565;-76
2022/09/02 02:38:23;;;;;;;3.65;2.50;;;11.10;99.90;;;;;;5031592;28;20196;-76
2022/09/02 02:40:49;;;;;;;2.60;2.40;;;11.10;99.90;;;;;;5036254;28;20553;-76
2022/09/02 02:43:15;;;;;;;1.92;1.83;;;11.00;99.90;;;;;;5028727;28;20234;-76
2022/09/02 02:45:41;;;;;;;2.65;2.35;;;11.10;99.90;;;;;;5027916;28;20170;-76
2022/09/02 02:48:07;;;;;;;2.50;2.30;;;11.00;99.90;;;;;;5034488;28;20711;-76
2022/09/02 02:50:32;;;;;;;2.10;2.00;;;10.90;99.90;;;;;;5027347;28;20181;-76
2022/09/02 02:53:01;;;;;;;2.40;2.20;;;10.90;99.90;;;;;;5044487;28;20556;-76
2022/09/02 02:55:27;;;;;;;2.40;2.20;;;10.90;99.90;;;;;;5033099;28;20176;-75
2022/09/02 02:57:53;;;;;;;2.42;2.33;;;10.80;99.90;;;;;;5036546;28;20573;-76
2022/09/02 03:00:25;;;;;;;2.65;2.08;;;10.80;99.90;;;;;;5033362;28;20184;-76
2022/09/02 03:02:58;;;;;;;2.42;2.33;;;10.80;99.90;;;;;;5031350;28;20180;-75
2022/09/02 03:05:25;;;;;;;2.67;2.47;;;10.80;99.90;;;;;;5039314;28;20176;-75
2022/09/02 03:07:51;;;;;;;2.42;2.33;;;10.70;99.90;;;;;;5033756;28;20208;-75
2022/09/02 03:10:17;;;;;;;2.45;2.20;;;10.70;99.90;;;;;;5033391;28;20581;-76
2022/09/02 03:12:45;;;;;;;10.68;2.60;;;10.70;99.90;;;;;;5035052;28;20181;-76
2022/09/02 03:15:11;;;;;;;2.40;2.30;;;10.60;99.90;;;;;;5041511;28;20199;-76
2022/09/02 03:17:37;;;;;;;3.35;2.20;;;10.60;99.90;;;;;;5036660;28;20208;-76
2022/09/02 03:20:05;;;;;;;2.50;2.30;;;10.60;99.90;;;;;;5038371;28;20253;-75
2022/09/02 03:22:30;;;;;;;2.65;2.45;;;10.60;99.90;;;;;;5036962;28;20258;-74
2022/09/02 03:24:56;;;;;;;2.28;2.10;;;10.60;99.90;;;;;;5037143;28;20635;-74
2022/09/02 03:27:21;;;;;;;2.47;2.17;;;10.60;99.90;;;;;;5036790;28;20230;-75
2022/09/02 03:29:47;;;;;;;4.43;2.40;;;10.60;99.90;;;;;;5033534;28;20262;-75
2022/09/02 03:32:13;;;;;;;2.00;1.90;;;10.60;99.90;;;;;;5031303;28;20267;-75
2022/09/02 03:34:40;;;;;;;6.75;2.50;;;10.50;99.90;;;;;;5028722;28;20665;-76
2022/09/02 03:37:06;;;;;;;3.20;2.60;;;10.50;99.90;;;;;;5025900;28;20193;-76
2022/09/02 03:39:31;;;;;;;2.25;2.15;;;10.50;99.90;;;;;;5026740;28;20262;-75
2022/09/02 03:41:57;;;;;;;2.35;2.13;;;10.50;99.90;;;;;;5030409;28;20176;-75
2022/09/02 03:44:22;;;;;;;2.75;2.47;;;10.50;99.90;;;;;;5024350;28;20555;-75
2022/09/02 03:46:48;;;;;;;2.78;2.40;;;10.50;99.90;;;;;;5032547;28;20220;-75
2022/09/02 03:49:14;;;;;;;2.30;2.20;;;10.40;99.90;;;;;;5030446;28;20671;-75
2022/09/02 03:51:40;;;;;;;2.47;2.28;;;10.30;99.90;;;;;;5030275;28;20196;-75
2022/09/02 03:54:07;;;;;;;2.92;2.55;;;10.30;99.90;;;;;;5029639;28;20181;-74
2022/09/02 03:56:33;;;;;;;3.25;2.10;;;10.30;99.90;;;;;;5026842;28;20208;-75
2022/09/02 03:58:59;;;;;;;2.60;2.45;;;10.20;99.90;;;;;;5030451;28;20203;-75
2022/09/02 04:01:25;;;;;;;2.78;2.58;;;10.30;99.90;;;;;;5025514;28;20176;-75
2022/09/02 04:03:52;;;;;;;2.72;2.40;;;10.30;99.90;;;;;;5025805;28;20177;-74
2022/09/02 04:06:20;;;;;;;2.83;2.55;;;10.20;99.90;;;;;;5021461;28;20177;-74
2022/09/02 04:08:46;;;;;;;3.72;2.60;;;10.20;99.90;;;;;;5025365;28;20238;-74
2022/09/02 04:11:16;;;;;;;2.83;2.53;;;10.20;99.90;;;;;;5031412;28;20186;-74
2022/09/02 04:13:42;;;;;;;2.13;2.03;;;10.20;99.90;;;;;;5027637;28;20572;-75
2022/09/02 04:16:12;;;;;;;2.92;2.70;;;10.20;99.90;;;;;;5028898;28;20683;-75
2022/09/02 04:18:38;;;;;;;3.30;2.63;;;10.20;99.90;;;;;;5032120;28;20196;-74
2022/09/02 04:21:04;;;;;;;4.20;2.47;;;10.20;99.90;;;;;;5027480;28;20625;-74
2022/09/02 04:23:30;;;;;;;3.63;2.50;;;10.20;99.90;;;;;;5023886;28;20192;-75
2022/09/02 04:25:56;;;;;;;2.42;2.22;;;10.20;99.90;;;;;;5014291;28;20199;-74
2022/09/02 04:28:22;;;;;;;2.60;2.50;;;10.30;99.90;;;;;;5015532;28;20280;-74
2022/09/02 04:30:48;;;;;;;2.92;2.38;;;10.30;99.90;;;;;;5023296;28;20227;-74
2022/09/02 04:33:13;;;;;;;3.13;2.50;;;10.30;99.90;;;;;;5033322;28;20204;-75
2022/09/02 04:35:44;;;;;;;2.40;2.30;;;10.30;99.90;;;;;;5026755;28;20185;-74
2022/09/02 04:38:10;;;;;;;3.72;3.10;;;10.30;99.90;;;;;;5036896;28;20617;-75
2022/09/02 04:40:44;;;;;;;3.35;2.42;;;10.30;99.90;;;;;;5029995;28;20216;-76
2022/09/02 04:43:10;;;;;;;2.60;2.40;;;10.40;99.90;;;;;;5030056;28;20556;-76
2022/09/02 04:45:39;;;;;;;2.95;2.47;;;10.50;99.90;;;;;;5029447;28;20184;-76
2022/09/02 04:48:05;;;;;;;2.42;2.30;;;10.50;99.90;;;;;;5026464;28;20636;-76
2022/09/02 04:50:31;;;;;;;2.38;2.20;;;10.50;99.90;;;;;;5031051;28;20267;-76
2022/09/02 04:52:57;;;;;;;4.85;2.63;;;10.50;99.90;;;;;;5027718;28;20188;-76
2022/09/02 04:55:22;;;;;;;2.90;2.55;;;10.50;99.90;;;;;;5028831;28;20184;-76
2022/09/02 04:57:48;;;;;;;2.95;2.47;;;10.60;99.90;;;;;;5026921;28;20833;-76
2022/09/02 05:00:14;;;;;;;2.40;2.20;;;10.60;99.90;;;;;;5030100;28;20177;-77
2022/09/02 05:02:40;;;;;;;2.13;2.03;;;10.60;99.90;;;;;;5028511;28;20215;-75
2022/09/02 05:05:06;;;;;;;2.17;2.05;;;10.80;99.90;;;;;;5031596;28;20606;-76
2022/09/02 05:07:35;;;;;;;4.97;2.42;;;10.80;99.90;;;;;;5029893;28;20659;-80
2022/09/02 05:10:02;;;;;;;3.28;2.72;;;10.90;99.90;;;;;;5025104;28;20224;-82
2022/09/02 05:12:27;;;;;;;3.10;2.10;;;11.00;99.90;;;;;;5024994;28;20184;-82
2022/09/02 05:14:55;;;;;;;4.63;2.10;;;11.10;99.90;;;;;;5032982;28;20219;-82
2022/09/02 05:17:21;;;;;;;2.55;2.35;;;11.20;99.90;;;;;;5030618;28;20555;-82
2022/09/02 05:19:47;;;;;;;2.45;2.25;;;11.40;99.90;;;;;;5033917;28;20189;-81
2022/09/02 05:22:13;;;;;;;1.95;1.83;;;11.50;99.90;;;;;;5032644;28;20178;-82
2022/09/02 05:24:41;;;;;;;3.17;2.03;;;11.60;99.90;;;;;;5028185;28;20709;-82
2022/09/02 05:27:07;;;;;;;2.88;2.20;;;11.70;99.90;;;;;;5028839;28;20275;-82
2022/09/02 05:29:34;;;;;;;6.07;2.38;;;11.70;99.90;;;;;;5028444;28;21572;-82
2022/09/02 05:32:00;;;;;;;1.85;1.75;;;11.90;99.90;;;;;;5020122;28;20177;-83
2022/09/02 05:34:25;;;;;;;2.08;1.98;;;12.00;99.90;;;;;;5032987;28;20188;-85
2022/09/02 05:36:51;;;;;;;2.42;2.25;;;12.00;99.90;;;;;;5036259;28;20204;-83
2022/09/02 05:39:25;;;;;;;2.75;1.80;;;12.10;99.90;;;;;;5040334;28;20187;-82
2022/09/02 05:42:09;;;;;;;1.92;1.70;;;12.20;99.90;;;;;;5049033;28;20184;-81
2022/09/02 05:44:38;;;;;;;2.38;2.20;;;12.30;99.90;;;;;;5043673;28;20512;-81
2022/09/02 05:47:39;;;;;;;1.95;1.85;;;12.40;99.90;;;;;;5046774;28;20172;-83
2022/09/02 05:50:31;;;;;;;;;;;;;;;;;;;;;
2022/09/02 05:52:57;;;;;;;2.05;1.95;;;12.60;99.90;;;;;;5045145;28;20212;-81
2022/09/02 05:55:49;;;;;;;2.20;2.00;;;12.70;99.90;;;;;;5046711;28;20184;-82
2022/09/02 05:58:17;;;;;;;2.20;2.00;;;12.80;99.90;;;;;;5059775;28;20219;-83
2022/09/02 06:01:10;;;;;;;3.92;2.00;;;12.90;99.90;;;;;;5042276;28;20177;-81
2022/09/02 06:03:36;;;;;;;2.78;2.00;;;12.90;99.90;;;;;;5039776;28;20196;-81
2022/09/02 06:06:03;;;;;;;3.10;2.38;;;13.00;99.90;;;;;;5044503;28;20244;-81
2022/09/02 06:08:29;;;;;;;1.98;1.60;;;13.10;99.90;;;;;;5038331;28;20209;-80
2022/09/02 06:10:55;;;;;;;1.92;1.83;;;13.10;99.90;;;;;;5034531;28;20846;-81
2022/09/02 06:13:26;;;;;;;1.90;1.80;;;13.30;99.90;;;;;;5033812;28;20526;-80
2022/09/02 06:15:52;;;;;;;1.98;1.88;;;13.30;99.90;;;;;;5041293;28;20652;-81
2022/09/02 06:18:18;;;;;;;3.05;1.92;;;13.40;99.90;;;;;;5038512;28;20204;-81
2022/09/02 06:21:23;;;;;;;4.25;2.00;;;13.50;99.90;;;;;;5042898;28;20274;-81
2022/09/02 06:23:42;;;;;;;1.85;1.75;;;13.60;99.90;;;;;;5032340;28;20213;-81
2022/09/02 06:26:12;;;;;;;3.70;2.17;;;13.70;99.90;;;;;;5043566;28;20251;-81
2022/09/02 06:28:45;;;;;;;6.13;2.40;;;13.70;99.90;;;;;;5046735;28;20212;-79
2022/09/02 06:31:20;;;;;;;4.05;1.98;;;13.90;99.90;;;;;;5046310;28;20177;-80
2022/09/02 06:33:54;;;;;;;1.60;1.60;;;14.00;99.90;;;;;;5060575;28;20204;-81
2022/09/02 06:36:22;;;;;;;2.50;2.20;;;14.10;99.90;;;;;;5049579;28;20265;-82
2022/09/02 06:38:53;;;;;;;1.85;1.75;;;14.20;99.90;;;;;;5050308;28;20208;-80
2022/09/02 06:41:23;;;;;;;1.98;1.50;;;14.40;99.90;;;;;;5052348;28;20291;-83
2022/09/02 06:43:49;;;;;;;2.47;1.60;;;14.50;99.90;;;;;;5041227;28;20189;-79
2022/09/02 06:46:24;;;;;;;2.85;1.75;;;14.60;99.90;;;;;;5040211;28;20177;-81
2022/09/02 06:48:50;;;;;;;2.33;1.63;;;14.70;99.90;;;;;;5038095;28;20702;-80
2022/09/02 06:51:21;;;;;;;3.47;1.70;;;14.80;99.90;;;;;;5037084;28;20195;-83
2022/09/02 06:53:46;;;;;;;2.53;1.60;;;14.90;99.90;;;;;;5036790;28;20670;-78
2022/09/02 06:56:12;;;;;;;1.88;1.65;;;15.00;99.90;;;;;;5050231;28;20211;-82
2022/09/02 06:58:38;;;;;;;1.77;1.67;;;15.00;99.90;;;;;;5044544;28;20721;-78
2022/09/02 07:01:04;;;;;;;1.80;1.70;;;15.10;99.90;;;;;;5034487;28;20260;-77
2022/09/02 07:06:14;;;;;;;1.73;1.63;;;15.30;99.90;;;;;;5037307;28;20204;-78
2022/09/02 07:08:41;;;;;;;2.17;1.60;;;15.40;99.90;;;;;;5048659;28;20200;-79
2022/09/02 07:11:16;;;;;;;3.72;1.67;;;15.40;99.90;;;;;;5033744;28;20576;-77
2022/09/02 07:13:41;;;;;;;2.42;1.90;;;15.50;99.90;;;;;;5028179;28;20687;-76
2022/09/02 07:16:07;;;;;;;1.60;1.55;;;15.60;99.90;;;;;;5030301;28;20280;-77
2022/09/02 07:18:33;;;;;;;2.38;1.58;;;15.70;99.90;;;;;;5035906;28;20227;-77
2022/09/02 07:21:00;;;;;;;2.47;2.10;;;15.80;99.90;;;;;;5035702;28;20268;-78
2022/09/02 07:23:25;;;;;;;1.60;1.50;;;15.90;99.90;;;;;;5031680;28;20821;-76
2022/09/02 07:25:51;;;;;;;1.17;1.17;;;15.90;99.90;;;;;;5032431;28;20244;-76
2022/09/02 07:28:17;;;;;;;1.92;1.45;;;16.00;99.90;;;;;;5031943;28;20227;-76
2022/09/02 07:30:43;;;;;;;2.15;1.70;;;16.00;99.90;;;;;;5028330;28;20741;-77
2022/09/02 07:33:13;;;;;;;4.40;1.65;;;16.10;99.90;;;;;;5035289;28;20173;-76
2022/09/02 07:35:41;;;;;;;2.25;1.83;;;16.20;99.90;;;;;;5034284;28;20226;-76
2022/09/02 07:38:08;;;;;;;1.55;1.55;;;16.20;99.90;;;;;;5031849;28;20189;-78
2022/09/02 07:40:35;;;;;;;2.05;1.40;;;16.30;99.90;;;;;;5039698;28;20564;-76
2022/09/02 07:43:02;;;;;;;3.75;1.77;;;16.40;99.90;;;;;;5030896;28;20185;-76
2022/09/02 07:45:29;;;;;;;1.40;1.40;;;16.50;99.90;;;;;;5032031;28;20181;-77
2022/09/02 07:47:55;;;;;;;2.15;1.80;;;16.60;99.90;;;;;;5028173;28;20188;-79
2022/09/02 07:50:21;;;;;;;1.15;1.15;;;16.70;99.90;;;;;;5036464;28;20210;-78
2022/09/02 07:52:48;;;;;;;1.77;1.40;;;16.80;99.90;;;;;;5042296;28;20207;-79
2022/09/02 07:55:14;;;;;;;3.42;1.23;;;16.90;99.90;;;;;;5049761;28;20180;-78
2022/09/02 07:57:40;;;;;;;1.58;1.40;;;17.00;99.90;;;;;;5047464;28;20585;-78
2022/09/02 08:00:06;;;;;;;1.50;1.38;;;17.20;99.90;;;;;;5041159;28;20197;-77
2022/09/02 08:02:33;;;;;;;1.88;1.38;;;17.30;99.90;;;;;;5034502;28;20753;-78
2022/09/02 08:04:58;;;;;;;1.35;1.27;;;17.30;99.90;;;;;;5040680;28;20578;-79
2022/09/02 08:07:24;;;;;;;2.90;1.58;;;17.50;99.90;;;;;;5030189;28;20228;-78
2022/09/02 08:09:51;;;;;;;1.63;1.20;;;17.60;99.90;;;;;;5030343;28;20204;-80
2022/09/02 08:12:16;;;;;;;2.15;1.00;;;17.70;99.90;;;;;;5033249;28;20584;-78
2022/09/02 08:14:42;;;;;;;1.00;1.00;;;17.80;99.90;;;;;;5033862;28;20206;-77
2022/09/02 08:17:08;;;;;;;1.05;1.05;;;17.90;99.90;;;;;;5032116;28;20274;-80
2022/09/02 08:19:33;;;;;;;1.27;0.90;;;18.10;99.90;;;;;;5038259;28;20246;-79
2022/09/02 08:22:05;;;;;;;2.15;1.00;;;18.20;99.90;;;;;;5039620;28;20176;-79
2022/09/02 08:24:31;;;;;;;0.98;0.98;;;18.20;99.90;;;;;;5033313;28;20173;-79
2022/09/02 08:26:58;;;;;;;1.55;0.88;;;18.30;99.90;;;;;;5040411;28;20211;-78
2022/09/02 08:29:24;;;;;;;0.90;0.90;;;18.50;99.70;;;;;;5037478;28;20196;-79
2022/09/02 08:31:50;;;;;;;2.67;1.20;;;18.50;99.70;;;;;;5033453;28;20184;-78
2022/09/02 08:34:15;;;;;;;1.27;1.10;;;18.60;98.50;;;;;;5033430;28;20229;-81
2022/09/02 08:36:42;;;;;;;1.15;0.90;;;18.70;98.30;;;;;;5037481;28;20200;-79
2022/09/02 08:39:08;;;;;;;1.70;0.90;;;18.70;97.30;;;;;;5045545;28;20574;-79
2022/09/02 08:41:57;;;;;;;1.08;0.82;;;18.80;97.70;;;;;;5040099;28;20216;-80
2022/09/02 08:44:24;;;;;;;0.98;0.80;;;18.90;97.20;;;;;;5045272;28;20524;-78
2022/09/02 08:46:58;;;;;;;1.63;1.10;;;18.90;95.30;;;;;;5046574;28;20211;-79
2022/09/02 08:49:32;;;;;;;0.80;0.80;;;19.00;95.50;;;;;;5044080;28;20208;-78
2022/09/02 08:52:01;;;;;;;1.02;1.02;;;19.10;95.20;;;;;;5036141;28;20184;-78
2022/09/02 08:54:31;;;;;;;1.20;0.80;;;19.20;95.50;;;;;;5033798;28;20664;-76
2022/09/02 08:56:57;;;;;;;0.90;0.90;;;19.50;94.10;;;;;;5029638;28;20745;-80
2022/09/02 08:59:26;;;;;;;2.65;0.95;;;19.70;92.30;;;;;;5044515;28;20717;-78
2022/09/02 09:02:12;;;;;;;1.95;0.73;;;19.70;92.60;;;;;;5033534;28;20185;-78
2022/09/02 09:04:59;;;;;;;2.28;1.00;;;20.00;93.30;;;;;;5024221;28;20203;-77
2022/09/02 09:07:36;;;;;;;1.85;1.10;;;21.20;90.90;;;;;;5026852;28;20196;-78
2022/09/02 09:10:11;;;;;;;0.88;0.88;;;23.70;82.20;;;;;;5029193;28;20202;-77
2022/09/02 09:12:57;;;;;;;1.48;1.13;;;26.20;70.00;;;;;;5028254;28;20526;-77
2022/09/02 09:15:32;;;;;;;0.88;0.88;;;28.60;60.50;;;;;;5031322;28;20739;-75
2022/09/02 09:18:02;;;;;;;1.48;1.00;;;30.50;53.70;;;;;;5025312;28;20220;-74
2022/09/02 09:20:32;;;;;;;0.80;0.80;;;31.80;50.70;;;;;;5029634;28;20676;-74
2022/09/02 09:22:59;;;;;;;0.90;0.80;;;32.80;47.10;;;;;;5025123;28;20169;-74
2022/09/02 09:25:28;;;;;;;1.52;1.05;;;33.50;45.90;;;;;;5030207;28;20175;-73
2022/09/02 09:27:59;;;;;;;0.82;0.82;;;34.00;44.60;;;;;;5027690;28;20203;-73
2022/09/02 09:30:26;;;;;;;1.00;0.70;;;34.20;42.80;;;;;;5033587;28;20196;-75
2022/09/02 09:32:54;;;;;;;0.80;0.80;;;34.70;43.00;;;;;;5028911;28;20190;-75
2022/09/02 09:35:20;;;;;;;0.98;0.80;;;35.30;40.70;;;;;;5029186;28;20275;-77
2022/09/02 09:37:49;;;;;;;1.85;0.80;;;34.60;40.50;;;;;;5036679;28;20219;-76
2022/09/02 09:40:26;;;;;;;2.97;1.10;;;35.10;41.10;;;;;;5022868;28;20287;-74
2022/09/02 09:43:00;;;;;;;0.65;0.65;;;35.60;39.70;;;;;;5024189;28;20179;-74
2022/09/02 09:45:36;;;;;;;1.38;0.90;;;36.50;38.70;;;;;;5029167;28;20259;-73
2022/09/02 09:48:28;;;;;;;0.77;0.77;;;37.30;38.10;;;;;;5033029;28;20176;-72
2022/09/02 09:50:54;;;;;;;0.98;0.82;;;37.60;38.70;;;;;;5026898;28;20175;-74
2022/09/02 09:53:31;;;;;;;0.57;0.57;;;38.50;35.00;;;;;;5029402;28;20262;-73
2022/09/02 09:56:05;;;;;;;1.00;0.90;;;38.50;36.70;;;;;;5031123;28;20178;-74
2022/09/02 09:58:36;;;;;;;0.85;0.85;;;39.00;35.40;;;;;;5025322;28;20680;-77
2022/09/02 10:01:25;;;;;;;1.88;0.80;;;39.50;34.40;;;;;;5034412;28;20254;-77
2022/09/02 10:03:54;;;;;;;1.80;0.93;;;40.20;33.80;;;;;;5027835;28;20173;-74
2022/09/02 10:06:24;;;;;;;1.70;0.80;;;40.10;34.80;;;;;;5032813;28;20179;-74
2022/09/02 10:08:57;;;;;;;0.80;0.80;;;39.70;33.00;;;;;;5032231;28;20192;-74
2022/09/02 10:11:36;;;;;;;1.08;0.70;;;39.40;35.10;;;;;;5032326;28;20179;-74
2022/09/02 10:14:08;;;;;;;1.13;1.02;;;39.60;34.50;;;;;;5032898;28;20195;-72
2022/09/02 10:16:53;;;;;;;1.95;1.05;;;40.50;34.60;;;;;;5026926;28;20663;-77
2022/09/02 10:19:54;;;;;;;0.90;0.90;;;39.90;35.10;;;;;;5035598;28;20199;-76
2022/09/02 10:23:03;;;;;;;0.73;0.73;;;38.60;36.80;;;;;;5027413;28;20262;-77
2022/09/02 10:25:52;;;;;;;0.75;0.75;;;36.30;37.70;;;;;;5024435;28;20239;-77
2022/09/02 10:28:56;;;;;;;0.75;0.68;;;34.50;40.10;;;;;;5028762;28;20770;-76
2022/09/02 10:31:54;;;;;;;1.38;0.90;;;33.30;42.70;;;;;;5028761;28;20701;-76
2022/09/02 10:34:25;;;;;;;2.25;1.52;;;31.90;44.30;;;;;;5033942;28;20236;-77
2022/09/02 10:37:17;;;;;;;1.45;1.35;;;31.20;44.70;;;;;;5033475;28;20294;-76
2022/09/02 10:40:08;;;;;;;0.93;0.85;;;30.50;46.60;;;;;;5029186;28;20200;-76
2022/09/02 10:42:45;;;;;;;0.88;0.88;;;29.90;46.70;;;;;;5035999;28;20561;-76
2022/09/02 10:45:18;;;;;;;0.80;0.80;;;29.40;47.90;;;;;;5034527;28;20250;-75
2022/09/02 10:48:08;;;;;;;0.65;0.65;;;29.50;46.70;;;;;;5024408;28;20184;-76
2022/09/02 10:50:42;;;;;;;0.82;0.82;;;31.60;44.40;;;;;;5032684;28;20245;-76
2022/09/02 10:53:27;;;;;;;2.40;1.67;;;32.50;43.70;;;;;;5033303;28;20233;-75
2022/09/02 10:56:10;;;;;;;1.20;1.08;;;31.80;43.90;;;;;;5041085;28;20560;-76
2022/09/02 10:58:47;;;;;;;0.75;0.75;;;30.80;45.30;;;;;;5033067;28;20208;-76
2022/09/02 11:01:39;;;;;;;4.35;1.40;;;30.00;45.40;;;;;;5034677;28;20197;-75
2022/09/02 11:04:30;;;;;;;3.90;1.10;;;30.90;45.40;;;;;;5031087;28;20584;-76
2022/09/02 11:06:57;;;;;;;3.63;1.40;;;33.50;43.20;;;;;;5029369;28;20180;-76
2022/09/02 11:09:26;;;;;;;0.90;0.90;;;35.10;40.70;;;;;;5029996;28;20207;-76
2022/09/02 11:12:01;;;;;;;0.80;0.80;;;36.50;38.30;;;;;;5028020;28;20171;-75
2022/09/02 11:14:35;;;;;;;0.93;0.93;;;38.10;36.80;;;;;;5029903;28;20206;-75
2022/09/02 11:17:20;;;;;;;4.45;1.48;;;38.30;35.90;;;;;;5032778;28;20287;-74
2022/09/02 11:19:57;;;;;;;0.95;0.70;;;37.60;35.40;;;;;;5032596;28;20203;-73
2022/09/02 11:23:18;;;;;;;2.00;0.95;;;35.70;36.90;;;;;;5026500;28;20175;-74
2022/09/02 11:25:54;;;;;;;1.25;1.15;;;33.40;39.60;;;;;;5028678;28;20200;-71
2022/09/02 11:28:47;;;;;;;0.70;0.70;;;32.70;41.40;;;;;;5025185;28;20208;-72
2022/09/02 11:31:20;;;;;;;0.63;0.63;;;33.80;39.90;;;;;;5036478;28;20255;-73
2022/09/02 11:33:46;;;;;;;3.80;1.08;;;34.30;39.30;;;;;;5029647;28;20271;-73
2022/09/02 11:36:11;;;;;;;1.17;0.90;;;35.00;40.20;;;;;;5036364;28;20270;-72
2022/09/02 11:38:50;;;;;;;0.95;0.93;;;35.20;39.00;;;;;;5032335;28;20223;-71
2022/09/02 11:41:27;;;;;;;0.90;0.90;;;34.20;39.30;;;;;;5032970;28;20651;-69
2022/09/02 11:44:19;;;;;;;0.80;0.75;;;34.20;39.20;;;;;;5032780;28;20907;-71
2022/09/02 11:47:14;;;;;;;0.75;0.75;;;34.00;39.40;;;;;;5031057;28;20206;-71
2022/09/02 11:49:54;;;;;;;1.00;1.00;;;33.20;40.80;;;;;;5029998;28;20576;-71
2022/09/02 11:52:23;;;;;;;1.42;1.33;;;32.00;42.80;;;;;;5034282;28;20191;-74
2022/09/02 11:55:23;;;;;;;1.08;0.85;;;31.10;43.90;;;;;;5031816;28;20203;-76
2022/09/02 11:57:56;;;;;;;1.30;0.90;;;31.70;44.30;;;;;;5031538;28;20768;-73
2022/09/02 12:00:54;;;;;;;1.15;0.90;;;32.60;41.70;;;;;;5027969;28;20187;-73
2022/09/02 12:03:22;;;;;;;0.70;0.70;;;32.50;42.80;;;;;;5032068;28;20248;-73
2022/09/02 12:06:03;;;;;;;2.22;0.82;;;32.70;42.90;;;;;;5032381;28;20176;-74
2022/09/02 12:08:37;;;;;;;0.85;0.80;;;32.40;42.60;;;;;;5024943;28;20195;-74
2022/09/02 12:11:06;;;;;;;0.80;0.80;;;32.40;42.70;;;;;;5028787;28;20180;-72
2022/09/02 12:13:36;;;;;;;1.85;1.00;;;33.10;42.80;;;;;;5032408;28;20203;-72
2022/09/02 12:16:11;;;;;;;1.58;1.00;;;33.40;41.50;;;;;;5031832;28;20181;-73
2022/09/02 12:18:38;;;;;;;1.60;1.08;;;34.00;40.90;;;;;;5032552;28;20191;-74
2022/09/02 12:21:07;;;;;;;1.85;0.93;;;35.00;39.70;;;;;;5032711;28;20227;-73
2022/09/02 12:23:51;;;;;;;1.85;0.98;;;36.20;38.50;;;;;;5027336;28;20272;-74
2022/09/02 12:26:37;;;;;;;0.98;0.90;;;36.00;38.80;;;;;;5032856;28;20677;-75
2022/09/02 12:29:18;;;;;;;1.05;0.93;;;35.50;38.40;;;;;;5029346;28;20238;-73
2022/09/02 12:31:46;;;;;;;1.30;0.95;;;34.20;39.90;;;;;;5029640;28;20183;-71
2022/09/02 12:34:23;;;;;;;0.75;0.73;;;33.70;40.90;;;;;;5028778;28;20184;-71
2022/09/02 12:36:51;;;;;;;2.13;1.13;;;33.70;41.20;;;;;;5027263;28;20283;-72
2022/09/02 12:39:23;;;;;;;1.67;0.70;;;33.60;41.70;;;;;;5032046;28;20195;-72
2022/09/02 12:42:17;;;;;;;1.00;1.00;;;32.80;41.40;;;;;;5029358;28;20187;-73
2022/09/02 12:44:45;;;;;;;1.08;1.08;;;32.30;42.30;;;;;;5024960;28;20195;-72
2022/09/02 12:47:24;;;;;;;0.68;0.68;;;32.60;41.80;;;;;;5022300;28;20267;-72
2022/09/02 12:50:09;;;;;;;1.10;1.00;;;32.60;41.30;;;;;;5025708;28;20547;-72
2022/09/02 12:52:35;;;;;;;0.60;0.60;;;33.20;41.20;;;;;;5027715;28;20183;-73
2022/09/02 12:55:07;;;;;;;1.70;0.77;;;33.80;41.80;;;;;;5031010;28;20225;-71
2022/09/02 12:57:44;;;;;;;0.70;0.70;;;34.10;41.20;;;;;;5026603;28;20214;-73
2022/09/02 13:00:27;;;;;;;1.27;0.95;;;34.20;41.50;;;;;;5034440;28;20608;-70
2022/09/02 13:03:34;;;;;;;0.80;0.80;;;34.80;39.50;;;;;;5028771;28;20172;-73
2022/09/02 13:06:20;;;;;;;1.00;1.00;;;35.00;39.30;;;;;;5031995;28;20607;-75
2022/09/02 13:08:53;;;;;;;1.33;0.95;;;35.70;39.60;;;;;;5027623;28;20215;-75
2022/09/02 13:11:56;;;;;;;0.73;0.68;;;36.40;38.90;;;;;;5032024;28;20198;-71